CES0319 ZSSS-ZSFZ
Flight info
| Callsign | CES0319 |
|---|---|
| Flight time | 1h 8m |
| Altitude | 30100 |
| Route | K0874S1100 NXD61D NXD W131 AKDIM A470 PADRU DCT |
| Aircraft | B738/M-SDE2E3FGHIRWXY/LB1 |
Departure
| Time | 2026-05-05 00:35 |
|---|---|
| Airport | Shanghai Hongqiao International Airport (ZSSS) |
Arrival
| Time | 2026-05-05 01:44 |
|---|---|
| Airport | Fuzhou Changle International Airport (ZSFZ) |
| Time | Latitude | Longitude | Altitude | Speed | Heading |
|---|---|---|---|---|---|
| 2026-05-05 00:14 | 31.19875 | 121.32845 | 15 ft | 0 kts | 269° |
| 2026-05-05 00:23 | 31.19875 | 121.32847 | 15 ft | 1 kts | 269° |
| 2026-05-05 00:23 | 31.19875 | 121.32864 | 15 ft | 2 kts | 269° |
| 2026-05-05 00:23 | 31.19876 | 121.32881 | 15 ft | 2 kts | 269° |
| 2026-05-05 00:24 | 31.19876 | 121.32899 | 15 ft | 2 kts | 269° |
| 2026-05-05 00:24 | 31.19876 | 121.32916 | 15 ft | 2 kts | 269° |
| 2026-05-05 00:24 | 31.19877 | 121.32934 | 15 ft | 2 kts | 279° |
| 2026-05-05 00:24 | 31.19871 | 121.32950 | 15 ft | 2 kts | 304° |
| 2026-05-05 00:25 | 31.19860 | 121.32962 | 15 ft | 2 kts | 328° |
| 2026-05-05 00:25 | 31.19846 | 121.32969 | 15 ft | 1 kts | 351° |
| 2026-05-05 00:25 | 31.19840 | 121.32970 | 15 ft | 1 kts | 360° |
| 2026-05-05 00:25 | 31.19837 | 121.32970 | 15 ft | 0 kts | 357° |
| 2026-05-05 00:27 | 31.19844 | 121.32969 | 15 ft | 1 kts | 357° |
| 2026-05-05 00:28 | 31.19856 | 121.32968 | 15 ft | 2 kts | 357° |
| 2026-05-05 00:28 | 31.19893 | 121.32967 | 15 ft | 7 kts | 358° |
| 2026-05-05 00:28 | 31.19960 | 121.32963 | 15 ft | 9 kts | 356° |
| 2026-05-05 00:28 | 31.20024 | 121.32959 | 15 ft | 8 kts | 356° |
| 2026-05-05 00:29 | 31.20080 | 121.32955 | 15 ft | 9 kts | 356° |
| 2026-05-05 00:29 | 31.20172 | 121.32950 | 15 ft | 16 kts | 357° |
| 2026-05-05 00:29 | 31.20281 | 121.32945 | 15 ft | 14 kts | 357° |
| 2026-05-05 00:29 | 31.20379 | 121.32940 | 15 ft | 13 kts | 357° |
| 2026-05-05 00:30 | 31.20468 | 121.32935 | 15 ft | 11 kts | 356° |
| 2026-05-05 00:30 | 31.20553 | 121.32930 | 15 ft | 14 kts | 357° |
| 2026-05-05 00:30 | 31.20680 | 121.32925 | 15 ft | 20 kts | 357° |
| 2026-05-05 00:30 | 31.20819 | 121.32916 | 15 ft | 19 kts | 356° |
| 2026-05-05 00:31 | 31.20949 | 121.32908 | 15 ft | 17 kts | 357° |
| 2026-05-05 00:31 | 31.21068 | 121.32901 | 15 ft | 16 kts | 357° |
| 2026-05-05 00:31 | 31.21176 | 121.32896 | 15 ft | 14 kts | 357° |
| 2026-05-05 00:31 | 31.21268 | 121.32907 | 15 ft | 11 kts | 42° |
| 2026-05-05 00:32 | 31.21290 | 121.32987 | 15 ft | 10 kts | 90° |
| 2026-05-05 00:32 | 31.21292 | 121.33066 | 15 ft | 10 kts | 88° |
| 2026-05-05 00:32 | 31.21295 | 121.33167 | 15 ft | 13 kts | 87° |
| 2026-05-05 00:32 | 31.21299 | 121.33277 | 15 ft | 13 kts | 87° |
| 2026-05-05 00:33 | 31.21303 | 121.33379 | 15 ft | 11 kts | 87° |
| 2026-05-05 00:33 | 31.21307 | 121.33469 | 15 ft | 10 kts | 87° |
| 2026-05-05 00:33 | 31.21298 | 121.33543 | 15 ft | 8 kts | 130° |
| 2026-05-05 00:33 | 31.21247 | 121.33560 | 15 ft | 7 kts | 176° |
| 2026-05-05 00:34 | 31.21203 | 121.33559 | 15 ft | 5 kts | 182° |
| 2026-05-05 00:34 | 31.21169 | 121.33557 | 15 ft | 4 kts | 181° |
| 2026-05-05 00:34 | 31.21137 | 121.33558 | 15 ft | 8 kts | 177° |
| 2026-05-05 00:34 | 31.20991 | 121.33566 | 15 ft | 38 kts | 177° |
| 2026-05-05 00:35 | 31.20515 | 121.33592 | 15 ft | 104 kts | 177° |
| 2026-05-05 00:35 | 31.19526 | 121.33647 | 62 ft | 171 kts | 177° |
| 2026-05-05 00:35 | 31.18319 | 121.33701 | 802 ft | 181 kts | 178° |
| 2026-05-05 00:35 | 31.17043 | 121.33710 | 1655 ft | 189 kts | 180° |
| 2026-05-05 00:36 | 31.15708 | 121.33472 | 2188 ft | 206 kts | 197° |
| 2026-05-05 00:36 | 31.14342 | 121.32741 | 2597 ft | 233 kts | 209° |
| 2026-05-05 00:36 | 31.12907 | 121.31730 | 3265 ft | 245 kts | 212° |
| 2026-05-05 00:36 | 31.11561 | 121.30410 | 3838 ft | 264 kts | 231° |
| 2026-05-05 00:37 | 31.10737 | 121.28492 | 4695 ft | 269 kts | 252° |
| 2026-05-05 00:37 | 31.10253 | 121.26393 | 5490 ft | 276 kts | 256° |
| 2026-05-05 00:37 | 31.09769 | 121.24218 | 6410 ft | 278 kts | 255° |
| 2026-05-05 00:37 | 31.09244 | 121.22072 | 7252 ft | 281 kts | 253° |
| 2026-05-05 00:38 | 31.08667 | 121.19881 | 8073 ft | 285 kts | 253° |
| 2026-05-05 00:38 | 31.08077 | 121.17690 | 8944 ft | 286 kts | 253° |
| 2026-05-05 00:38 | 31.07486 | 121.15497 | 9760 ft | 288 kts | 253° |
| 2026-05-05 00:38 | 31.06911 | 121.13283 | 10509 ft | 292 kts | 255° |
| 2026-05-05 00:39 | 31.06339 | 121.10937 | 11008 ft | 306 kts | 255° |
| 2026-05-05 00:39 | 31.05759 | 121.08500 | 11497 ft | 319 kts | 255° |
| 2026-05-05 00:39 | 31.05149 | 121.05956 | 11924 ft | 334 kts | 255° |
| 2026-05-05 00:39 | 31.04512 | 121.03331 | 12341 ft | 348 kts | 255° |
| 2026-05-05 00:40 | 31.03838 | 121.00578 | 12765 ft | 361 kts | 255° |
| 2026-05-05 00:40 | 31.03133 | 120.97697 | 13124 ft | 375 kts | 255° |
| 2026-05-05 00:40 | 31.02401 | 120.94711 | 13460 ft | 390 kts | 255° |
| 2026-05-05 00:40 | 31.01647 | 120.91660 | 14033 ft | 396 kts | 255° |
| 2026-05-05 00:41 | 31.00886 | 120.88579 | 14727 ft | 400 kts | 255° |
| 2026-05-05 00:41 | 31.00117 | 120.85464 | 15469 ft | 401 kts | 255° |
| 2026-05-05 00:41 | 30.99342 | 120.82331 | 16167 ft | 404 kts | 255° |
| 2026-05-05 00:41 | 30.98561 | 120.79167 | 16789 ft | 408 kts | 255° |
| 2026-05-05 00:42 | 30.97771 | 120.75974 | 17465 ft | 411 kts | 255° |
| 2026-05-05 00:42 | 30.96991 | 120.72819 | 18095 ft | 414 kts | 255° |
| 2026-05-05 00:42 | 30.96195 | 120.69588 | 18667 ft | 418 kts | 255° |
| 2026-05-05 00:42 | 30.95394 | 120.66322 | 19275 ft | 422 kts | 255° |
| 2026-05-05 00:43 | 30.94583 | 120.63017 | 19899 ft | 425 kts | 255° |
| 2026-05-05 00:43 | 30.93778 | 120.59734 | 20517 ft | 427 kts | 255° |
| 2026-05-05 00:43 | 30.92955 | 120.56388 | 21138 ft | 430 kts | 255° |
| 2026-05-05 00:43 | 30.92130 | 120.53037 | 21675 ft | 434 kts | 255° |
| 2026-05-05 00:44 | 30.91231 | 120.49680 | 22294 ft | 436 kts | 252° |
| 2026-05-05 00:44 | 30.90075 | 120.46403 | 22751 ft | 442 kts | 244° |
| 2026-05-05 00:44 | 30.88484 | 120.43380 | 23297 ft | 446 kts | 236° |
| 2026-05-05 00:44 | 30.86406 | 120.40621 | 23890 ft | 450 kts | 226° |
| 2026-05-05 00:45 | 30.84029 | 120.38261 | 24469 ft | 452 kts | 221° |
| 2026-05-05 00:45 | 30.81515 | 120.36070 | 25043 ft | 454 kts | 219° |
| 2026-05-05 00:45 | 30.78954 | 120.33962 | 25738 ft | 451 kts | 218° |
| 2026-05-05 00:45 | 30.76392 | 120.31905 | 26708 ft | 441 kts | 218° |
| 2026-05-05 00:46 | 30.73909 | 120.29926 | 27612 ft | 432 kts | 218° |
| 2026-05-05 00:46 | 30.71441 | 120.27950 | 28281 ft | 428 kts | 219° |
| 2026-05-05 00:46 | 30.69040 | 120.26016 | 28966 ft | 423 kts | 219° |
| 2026-05-05 00:46 | 30.66628 | 120.24062 | 29664 ft | 417 kts | 220° |
| 2026-05-05 00:47 | 30.64268 | 120.22141 | 30046 ft | 417 kts | 220° |
| 2026-05-05 00:47 | 30.59515 | 120.18250 | 30137 ft | 416 kts | 220° |
| 2026-05-05 00:48 | 30.54837 | 120.14425 | 30141 ft | 412 kts | 220° |
| 2026-05-05 00:48 | 30.50113 | 120.10565 | 30141 ft | 414 kts | 220° |
| 2026-05-05 00:49 | 30.45424 | 120.06733 | 30138 ft | 412 kts | 220° |
| 2026-05-05 00:49 | 30.40659 | 120.03074 | 30141 ft | 416 kts | 217° |
| 2026-05-05 00:50 | 30.35639 | 119.99757 | 30139 ft | 414 kts | 215° |
| 2026-05-05 00:50 | 30.30591 | 119.96489 | 30144 ft | 414 kts | 215° |
| 2026-05-05 00:51 | 30.25559 | 119.93191 | 30141 ft | 415 kts | 215° |
| 2026-05-05 00:51 | 30.20563 | 119.89895 | 30143 ft | 413 kts | 216° |
| 2026-05-05 00:52 | 30.15592 | 119.86601 | 30147 ft | 413 kts | 216° |
| 2026-05-05 00:52 | 30.10587 | 119.83285 | 30149 ft | 412 kts | 216° |
| 2026-05-05 00:53 | 30.05639 | 119.80009 | 30149 ft | 413 kts | 216° |
| 2026-05-05 00:53 | 30.00673 | 119.76698 | 30152 ft | 412 kts | 217° |
| 2026-05-05 00:54 | 29.95734 | 119.73367 | 30156 ft | 410 kts | 216° |
| 2026-05-05 00:54 | 29.90791 | 119.70039 | 30172 ft | 411 kts | 216° |
| 2026-05-05 00:55 | 29.85566 | 119.67147 | 30174 ft | 422 kts | 205° |
| 2026-05-05 00:55 | 29.79703 | 119.66011 | 30179 ft | 433 kts | 193° |
| 2026-05-05 00:56 | 29.73629 | 119.65660 | 30183 ft | 437 kts | 191° |
| 2026-05-05 00:56 | 29.67567 | 119.65337 | 30186 ft | 435 kts | 192° |
| 2026-05-05 00:57 | 29.61502 | 119.64962 | 30185 ft | 435 kts | 192° |
| 2026-05-05 00:57 | 29.55436 | 119.64758 | 30183 ft | 438 kts | 190° |
| 2026-05-05 00:58 | 29.49363 | 119.64549 | 30183 ft | 434 kts | 192° |
| 2026-05-05 00:58 | 29.43320 | 119.64192 | 30186 ft | 433 kts | 192° |
| 2026-05-05 00:59 | 29.37344 | 119.63810 | 30181 ft | 431 kts | 192° |
| 2026-05-05 00:59 | 29.31347 | 119.63431 | 30181 ft | 433 kts | 192° |
| 2026-05-05 01:00 | 29.25341 | 119.63057 | 30176 ft | 431 kts | 193° |
| 2026-05-05 01:00 | 29.19320 | 119.62688 | 30176 ft | 430 kts | 193° |
| 2026-05-05 01:01 | 29.13353 | 119.62325 | 30173 ft | 431 kts | 193° |
| 2026-05-05 01:01 | 29.07365 | 119.61961 | 30172 ft | 429 kts | 193° |
| 2026-05-05 01:02 | 29.01393 | 119.61590 | 30174 ft | 429 kts | 193° |
| 2026-05-05 01:02 | 28.95435 | 119.61216 | 30174 ft | 429 kts | 193° |
| 2026-05-05 01:03 | 28.89455 | 119.60841 | 30181 ft | 429 kts | 193° |
| 2026-05-05 01:03 | 28.83462 | 119.60471 | 30196 ft | 429 kts | 193° |
| 2026-05-05 01:04 | 28.77533 | 119.60102 | 30201 ft | 430 kts | 193° |
| 2026-05-05 01:04 | 28.68560 | 119.59544 | 30208 ft | 430 kts | 193° |
| 2026-05-05 01:05 | 28.62578 | 119.59177 | 30209 ft | 430 kts | 193° |
| 2026-05-05 01:05 | 28.56604 | 119.58809 | 30199 ft | 428 kts | 193° |
| 2026-05-05 01:06 | 28.50615 | 119.58436 | 30202 ft | 432 kts | 193° |
| 2026-05-05 01:06 | 28.44634 | 119.58071 | 30200 ft | 430 kts | 193° |
| 2026-05-05 01:07 | 28.38648 | 119.57731 | 30196 ft | 430 kts | 192° |
| 2026-05-05 01:07 | 28.32648 | 119.57402 | 30209 ft | 431 kts | 192° |
| 2026-05-05 01:08 | 28.26655 | 119.57070 | 30214 ft | 432 kts | 192° |
| 2026-05-05 01:08 | 28.20661 | 119.56741 | 30212 ft | 430 kts | 192° |
| 2026-05-05 01:09 | 28.14671 | 119.56414 | 30220 ft | 431 kts | 192° |
| 2026-05-05 01:09 | 28.08655 | 119.56093 | 30232 ft | 431 kts | 192° |
| 2026-05-05 01:10 | 28.02636 | 119.55955 | 30230 ft | 435 kts | 190° |
| 2026-05-05 01:10 | 27.96583 | 119.55909 | 30237 ft | 435 kts | 190° |
| 2026-05-05 01:11 | 27.90502 | 119.55844 | 30228 ft | 435 kts | 190° |
| 2026-05-05 01:11 | 27.84412 | 119.55805 | 30232 ft | 435 kts | 189° |
| 2026-05-05 01:12 | 27.78350 | 119.55784 | 30228 ft | 436 kts | 189° |
| 2026-05-05 01:12 | 27.72300 | 119.55763 | 30223 ft | 436 kts | 189° |
| 2026-05-05 01:13 | 27.66181 | 119.55731 | 30228 ft | 438 kts | 189° |
| 2026-05-05 01:13 | 27.60084 | 119.55699 | 30231 ft | 437 kts | 189° |
| 2026-05-05 01:14 | 27.54001 | 119.55664 | 30226 ft | 439 kts | 189° |
| 2026-05-05 01:14 | 27.47901 | 119.55625 | 30214 ft | 439 kts | 189° |
| 2026-05-05 01:15 | 27.44812 | 119.55605 | 29894 ft | 442 kts | 189° |
| 2026-05-05 01:15 | 27.41759 | 119.55637 | 29430 ft | 443 kts | 186° |
| 2026-05-05 01:15 | 27.38671 | 119.56002 | 28935 ft | 449 kts | 179° |
| 2026-05-05 01:15 | 27.35586 | 119.56920 | 28430 ft | 463 kts | 169° |
| 2026-05-05 01:16 | 27.32619 | 119.58397 | 27928 ft | 478 kts | 160° |
| 2026-05-05 01:16 | 27.29776 | 119.60452 | 27422 ft | 491 kts | 151° |
| 2026-05-05 01:16 | 27.27191 | 119.63018 | 26915 ft | 500 kts | 141° |
| 2026-05-05 01:16 | 27.24948 | 119.66026 | 26410 ft | 511 kts | 132° |
| 2026-05-05 01:17 | 27.23068 | 119.69460 | 25904 ft | 521 kts | 123° |
| 2026-05-05 01:17 | 27.21638 | 119.73177 | 25407 ft | 528 kts | 114° |
| 2026-05-05 01:17 | 27.20606 | 119.77127 | 24902 ft | 527 kts | 107° |
| 2026-05-05 01:17 | 27.19956 | 119.81162 | 24408 ft | 521 kts | 102° |
| 2026-05-05 01:18 | 27.19423 | 119.85112 | 23912 ft | 513 kts | 104° |
| 2026-05-05 01:18 | 27.18597 | 119.88974 | 23428 ft | 500 kts | 112° |
| 2026-05-05 01:18 | 27.17358 | 119.92503 | 22949 ft | 487 kts | 121° |
| 2026-05-05 01:18 | 27.15676 | 119.95745 | 22473 ft | 473 kts | 130° |
| 2026-05-05 01:19 | 27.13627 | 119.98562 | 21998 ft | 458 kts | 140° |
| 2026-05-05 01:19 | 27.11302 | 120.00874 | 21531 ft | 443 kts | 150° |
| 2026-05-05 01:19 | 27.08716 | 120.02683 | 21051 ft | 428 kts | 160° |
| 2026-05-05 01:19 | 27.06023 | 120.03905 | 20578 ft | 414 kts | 170° |
| 2026-05-05 01:20 | 27.03224 | 120.04555 | 20096 ft | 400 kts | 180° |
| 2026-05-05 01:20 | 27.00510 | 120.04612 | 19625 ft | 386 kts | 190° |
| 2026-05-05 01:20 | 26.97884 | 120.04100 | 19143 ft | 375 kts | 200° |
| 2026-05-05 01:20 | 26.95431 | 120.03270 | 18666 ft | 368 kts | 202° |
| 2026-05-05 01:21 | 26.92984 | 120.02426 | 18182 ft | 364 kts | 200° |
| 2026-05-05 01:21 | 26.90545 | 120.01711 | 17705 ft | 361 kts | 199° |
| 2026-05-05 01:21 | 26.88153 | 120.00939 | 17226 ft | 354 kts | 203° |
| 2026-05-05 01:21 | 26.85911 | 119.99867 | 16749 ft | 347 kts | 211° |
| 2026-05-05 01:22 | 26.83845 | 119.98554 | 16277 ft | 342 kts | 215° |
| 2026-05-05 01:22 | 26.81848 | 119.97109 | 15794 ft | 338 kts | 216° |
| 2026-05-05 01:22 | 26.79925 | 119.95667 | 15321 ft | 334 kts | 217° |
| 2026-05-05 01:22 | 26.77988 | 119.94228 | 14841 ft | 331 kts | 217° |
| 2026-05-05 01:23 | 26.76052 | 119.92821 | 14363 ft | 328 kts | 216° |
| 2026-05-05 01:23 | 26.74144 | 119.91455 | 13891 ft | 326 kts | 216° |
| 2026-05-05 01:23 | 26.72247 | 119.90107 | 13413 ft | 323 kts | 216° |
| 2026-05-05 01:23 | 26.70365 | 119.88778 | 12937 ft | 321 kts | 216° |
| 2026-05-05 01:24 | 26.68475 | 119.87447 | 12460 ft | 319 kts | 215° |
| 2026-05-05 01:24 | 26.66612 | 119.86133 | 12024 ft | 315 kts | 216° |
| 2026-05-05 01:24 | 26.64776 | 119.84841 | 11916 ft | 301 kts | 215° |
| 2026-05-05 01:24 | 26.63044 | 119.83627 | 11754 ft | 290 kts | 215° |
| 2026-05-05 01:25 | 26.61355 | 119.82426 | 11506 ft | 283 kts | 216° |
| 2026-05-05 01:25 | 26.59714 | 119.81258 | 11336 ft | 276 kts | 215° |
| 2026-05-05 01:25 | 26.58092 | 119.80122 | 11216 ft | 278 kts | 215° |
| 2026-05-05 01:25 | 26.56432 | 119.78966 | 11102 ft | 279 kts | 215° |
| 2026-05-05 01:26 | 26.54811 | 119.77821 | 10981 ft | 278 kts | 216° |
| 2026-05-05 01:26 | 26.53175 | 119.76651 | 10859 ft | 277 kts | 216° |
| 2026-05-05 01:26 | 26.51548 | 119.75487 | 10737 ft | 278 kts | 216° |
| 2026-05-05 01:26 | 26.49930 | 119.74332 | 10615 ft | 278 kts | 216° |
| 2026-05-05 01:27 | 26.48291 | 119.73185 | 10490 ft | 277 kts | 213° |
| 2026-05-05 01:27 | 26.46496 | 119.72329 | 10359 ft | 282 kts | 195° |
| 2026-05-05 01:27 | 26.44534 | 119.72234 | 10247 ft | 288 kts | 180° |
| 2026-05-05 01:27 | 26.42514 | 119.72478 | 10127 ft | 289 kts | 177° |
| 2026-05-05 01:28 | 26.40516 | 119.72752 | 10000 ft | 288 kts | 178° |
| 2026-05-05 01:28 | 26.38528 | 119.72984 | 9875 ft | 287 kts | 179° |
| 2026-05-05 01:28 | 26.36529 | 119.73179 | 9756 ft | 286 kts | 179° |
| 2026-05-05 01:28 | 26.34558 | 119.73355 | 9639 ft | 285 kts | 179° |
| 2026-05-05 01:29 | 26.32578 | 119.73528 | 9510 ft | 285 kts | 179° |
| 2026-05-05 01:29 | 26.30601 | 119.73705 | 9382 ft | 284 kts | 179° |
| 2026-05-05 01:29 | 26.28605 | 119.73885 | 9266 ft | 283 kts | 179° |
| 2026-05-05 01:29 | 26.26653 | 119.74063 | 9148 ft | 284 kts | 179° |
| 2026-05-05 01:30 | 26.24672 | 119.74201 | 9018 ft | 282 kts | 184° |
| 2026-05-05 01:30 | 26.22754 | 119.73913 | 8889 ft | 276 kts | 202° |
| 2026-05-05 01:30 | 26.21012 | 119.73027 | 8776 ft | 275 kts | 210° |
| 2026-05-05 01:30 | 26.19337 | 119.72004 | 8660 ft | 275 kts | 211° |
| 2026-05-05 01:31 | 26.17649 | 119.70977 | 8536 ft | 275 kts | 210° |
| 2026-05-05 01:31 | 26.15955 | 119.69993 | 8415 ft | 275 kts | 209° |
| 2026-05-05 01:31 | 26.14238 | 119.69023 | 8283 ft | 275 kts | 208° |
| 2026-05-05 01:31 | 26.12518 | 119.68059 | 8155 ft | 274 kts | 208° |
| 2026-05-05 01:32 | 26.10833 | 119.67113 | 8036 ft | 275 kts | 208° |
| 2026-05-05 01:32 | 26.09107 | 119.66142 | 7912 ft | 275 kts | 208° |
| 2026-05-05 01:32 | 26.07405 | 119.65182 | 7783 ft | 270 kts | 208° |
| 2026-05-05 01:32 | 26.05757 | 119.64253 | 7584 ft | 262 kts | 208° |
| 2026-05-05 01:33 | 26.04154 | 119.63347 | 7385 ft | 255 kts | 208° |
| 2026-05-05 01:33 | 26.02576 | 119.62456 | 7185 ft | 249 kts | 207° |
| 2026-05-05 01:33 | 26.01053 | 119.61595 | 6989 ft | 243 kts | 207° |
| 2026-05-05 01:33 | 25.99566 | 119.60755 | 6795 ft | 238 kts | 207° |
| 2026-05-05 01:34 | 25.98089 | 119.59920 | 6596 ft | 233 kts | 206° |
| 2026-05-05 01:34 | 25.96656 | 119.59112 | 6403 ft | 233 kts | 206° |
| 2026-05-05 01:34 | 25.95196 | 119.58289 | 6206 ft | 233 kts | 206° |
| 2026-05-05 01:34 | 25.93762 | 119.57480 | 6017 ft | 233 kts | 206° |
| 2026-05-05 01:35 | 25.92306 | 119.56660 | 5822 ft | 234 kts | 206° |
| 2026-05-05 01:35 | 25.90854 | 119.55844 | 5629 ft | 233 kts | 206° |
| 2026-05-05 01:35 | 25.89393 | 119.55022 | 5429 ft | 233 kts | 206° |
| 2026-05-05 01:35 | 25.87946 | 119.54206 | 5234 ft | 233 kts | 206° |
| 2026-05-05 01:36 | 25.86495 | 119.53388 | 5038 ft | 232 kts | 206° |
| 2026-05-05 01:36 | 25.85186 | 119.52653 | 4864 ft | 232 kts | 205° |
| 2026-05-05 01:36 | 25.83833 | 119.51897 | 4692 ft | 234 kts | 205° |
| 2026-05-05 01:36 | 25.82367 | 119.51075 | 4495 ft | 234 kts | 205° |
| 2026-05-05 01:37 | 25.80907 | 119.50253 | 4302 ft | 234 kts | 205° |
| 2026-05-05 01:37 | 25.79458 | 119.49430 | 4110 ft | 235 kts | 206° |
| 2026-05-05 01:37 | 25.77982 | 119.48662 | 3910 ft | 234 kts | 197° |
| 2026-05-05 01:37 | 25.76382 | 119.48476 | 3703 ft | 228 kts | 163° |
| 2026-05-05 01:38 | 25.75040 | 119.49258 | 3510 ft | 215 kts | 132° |
| 2026-05-05 01:38 | 25.74132 | 119.50524 | 3313 ft | 208 kts | 117° |
| 2026-05-05 01:38 | 25.73490 | 119.51929 | 3110 ft | 202 kts | 104° |
| 2026-05-05 01:38 | 25.73381 | 119.53448 | 2928 ft | 196 kts | 74° |
| 2026-05-05 01:39 | 25.73917 | 119.54816 | 2898 ft | 194 kts | 56° |
| 2026-05-05 01:39 | 25.74875 | 119.55858 | 2887 ft | 197 kts | 33° |
| 2026-05-05 01:39 | 25.76081 | 119.56586 | 2892 ft | 198 kts | 30° |
| 2026-05-05 01:39 | 25.77312 | 119.57297 | 2885 ft | 198 kts | 30° |
| 2026-05-05 01:40 | 25.78540 | 119.57998 | 2887 ft | 197 kts | 30° |
| 2026-05-05 01:40 | 25.79782 | 119.58692 | 2742 ft | 199 kts | 28° |
| 2026-05-05 01:40 | 25.81006 | 119.59371 | 2499 ft | 193 kts | 28° |
| 2026-05-05 01:40 | 25.82164 | 119.60020 | 2189 ft | 180 kts | 28° |
| 2026-05-05 01:41 | 25.83249 | 119.60628 | 1973 ft | 172 kts | 27° |
| 2026-05-05 01:41 | 25.84306 | 119.61215 | 1759 ft | 160 kts | 28° |
| 2026-05-05 01:41 | 25.85240 | 119.61732 | 1546 ft | 148 kts | 27° |
| 2026-05-05 01:41 | 25.86123 | 119.62234 | 1322 ft | 134 kts | 28° |
| 2026-05-05 01:42 | 25.86947 | 119.62696 | 1183 ft | 132 kts | 26° |
| 2026-05-05 01:42 | 25.87774 | 119.63150 | 1003 ft | 132 kts | 29° |
| 2026-05-05 01:42 | 25.88607 | 119.63622 | 827 ft | 134 kts | 29° |
| 2026-05-05 01:42 | 25.89437 | 119.64092 | 642 ft | 133 kts | 25° |
| 2026-05-05 01:43 | 25.90287 | 119.64513 | 469 ft | 135 kts | 25° |
| 2026-05-05 01:43 | 25.91087 | 119.65065 | 289 ft | 135 kts | 28° |
| 2026-05-05 01:43 | 25.91956 | 119.65497 | 114 ft | 135 kts | 22° |
| 2026-05-05 01:43 | 25.92799 | 119.65952 | 63 ft | 130 kts | 21° |
| 2026-05-05 01:44 | 25.93462 | 119.66313 | 55 ft | 75 kts | 25° |
| 2026-05-05 01:44 | 25.93761 | 119.66486 | 55 ft | 30 kts | 32° |
| 2026-05-05 01:44 | 25.93893 | 119.66564 | 55 ft | 0 kts | 31° |
| 2026-05-05 01:44 | 25.93901 | 119.66570 | 55 ft | 4 kts | 33° |
| 2026-05-05 01:45 | 25.93941 | 119.66603 | 55 ft | 9 kts | 40° |
| 2026-05-05 01:45 | 25.93988 | 119.66658 | 55 ft | 8 kts | 51° |
| 2026-05-05 01:45 | 25.94020 | 119.66709 | 55 ft | 7 kts | 55° |
| 2026-05-05 01:45 | 25.94048 | 119.66752 | 55 ft | 6 kts | 54° |
| 2026-05-05 01:46 | 25.94071 | 119.66788 | 55 ft | 5 kts | 57° |
| 2026-05-05 01:46 | 25.94092 | 119.66836 | 55 ft | 6 kts | 76° |
| 2026-05-05 01:46 | 25.94085 | 119.66878 | 55 ft | 4 kts | 116° |
| 2026-05-05 01:46 | 25.94071 | 119.66910 | 55 ft | 4 kts | 116° |
| 2026-05-05 01:47 | 25.94046 | 119.66961 | 55 ft | 9 kts | 132° |
| 2026-05-05 01:47 | 25.93985 | 119.66966 | 55 ft | 7 kts | 222° |
| 2026-05-05 01:47 | 25.93962 | 119.66952 | 55 ft | 4 kts | 200° |
| 2026-05-05 01:47 | 25.93915 | 119.66932 | 55 ft | 8 kts | 204° |
| 2026-05-05 01:48 | 25.93867 | 119.66922 | 55 ft | 6 kts | 182° |
| 2026-05-05 01:48 | 25.93828 | 119.66921 | 55 ft | 5 kts | 182° |
| 2026-05-05 01:48 | 25.93796 | 119.66919 | 55 ft | 4 kts | 182° |
| 2026-05-05 01:48 | 25.93768 | 119.66918 | 55 ft | 3 kts | 182° |
| 2026-05-05 01:49 | 25.93737 | 119.66915 | 55 ft | 4 kts | 193° |
| 2026-05-05 01:49 | 25.93711 | 119.66909 | 55 ft | 3 kts | 179° |
| 2026-05-05 01:49 | 25.93688 | 119.66920 | 55 ft | 3 kts | 135° |
| 2026-05-05 01:49 | 25.93674 | 119.66944 | 55 ft | 3 kts | 119° |
| 2026-05-05 01:50 | 25.93662 | 119.66968 | 55 ft | 3 kts | 117° |
| 2026-05-05 01:50 | 25.93656 | 119.66981 | 55 ft | 0 kts | 117° |